createdAt,value
2024-01-22T00:01:23.989Z,99.75
2024-01-22T00:04:26.758Z,98.66
2024-01-22T00:07:29.522Z,97.71
2024-01-22T00:10:32.211Z,97.12
2024-01-22T00:13:34.873Z,97.87
2024-01-22T00:16:41.096Z,97.90
2024-01-22T00:19:43.955Z,97.36
2024-01-22T00:22:46.708Z,96.54
2024-01-22T00:25:49.374Z,96.75
2024-01-22T00:28:52.007Z,97.53
2024-01-22T00:31:54.666Z,98.74
2024-01-22T00:34:57.378Z,98.58
2024-01-22T00:38:00.118Z,97.66
2024-01-22T00:41:05.417Z,96.57
2024-01-22T00:44:08.205Z,96.87
2024-01-22T00:47:11.098Z,97.13
2024-01-22T00:50:14.144Z,97.26
2024-01-22T00:53:16.810Z,96.72
2024-01-22T00:56:19.492Z,96.69
2024-01-22T00:59:22.143Z,96.08
2024-01-22T01:02:24.789Z,96.92
2024-01-22T01:05:28.111Z,97.18
2024-01-22T01:08:33.468Z,96.61
2024-01-22T01:11:36.277Z,97.35
2024-01-22T01:14:38.977Z,96.06
2024-01-22T01:17:41.690Z,95.70
2024-01-22T01:20:44.508Z,95.77
2024-01-22T01:23:47.173Z,94.07
2024-01-22T01:26:53.081Z,94.10
2024-01-22T01:29:55.821Z,94.68
2024-01-22T01:32:58.724Z,94.83
2024-01-22T01:36:01.608Z,95.24
2024-01-22T01:39:04.610Z,94.86
2024-01-22T01:42:07.644Z,96.06
2024-01-22T01:45:18.069Z,97.04
2024-01-22T01:48:21.504Z,97.43
2024-01-22T01:51:25.602Z,95.99
2024-01-22T01:54:29.897Z,96.12
2024-01-22T01:57:33.037Z,95.87
2024-01-22T02:00:36.131Z,95.23
2024-01-22T02:03:41.639Z,95.00
2024-01-22T02:06:44.538Z,94.95
2024-01-22T02:09:52.314Z,94.75
2024-01-22T02:12:54.948Z,94.83
2024-01-22T02:15:57.690Z,94.81
2024-01-22T02:19:00.549Z,94.81
2024-01-22T02:22:03.254Z,95.00
2024-01-22T02:25:06.474Z,97.80
2024-01-22T02:28:09.313Z,96.67
2024-01-22T02:31:11.976Z,96.70
2024-01-22T02:34:14.698Z,96.29
2024-01-22T02:37:17.455Z,96.12
2024-01-22T02:40:20.109Z,96.84
2024-01-22T02:43:22.774Z,96.94
2024-01-22T02:46:28.438Z,95.44
2024-01-22T02:49:31.208Z,95.57
2024-01-22T02:52:33.884Z,95.17
2024-01-22T02:55:36.560Z,95.02
2024-01-22T02:58:39.316Z,97.04
2024-01-22T03:01:42.073Z,98.44
2024-01-22T03:04:45.176Z,99.32
2024-01-22T03:07:47.832Z,97.64
2024-01-22T03:10:50.757Z,98.85
2024-01-22T03:13:53.421Z,97.81
2024-01-22T03:16:56.051Z,96.08
2024-01-22T03:19:58.708Z,97.99
2024-01-22T03:23:01.325Z,96.60
2024-01-22T03:26:03.943Z,96.19
2024-01-22T03:29:06.634Z,95.55
2024-01-22T03:32:09.290Z,96.11
2024-01-22T03:35:11.944Z,96.15
2024-01-22T03:38:15.034Z,96.64
2024-01-22T03:41:18.037Z,97.39
2024-01-22T03:44:20.691Z,97.10
2024-01-22T03:47:23.400Z,96.80
2024-01-22T03:50:26.117Z,97.27
2024-01-22T03:53:28.941Z,98.32
2024-01-22T03:56:31.555Z,95.98
2024-01-22T03:59:38.551Z,95.70
2024-01-22T04:02:41.316Z,96.15
2024-01-22T04:05:44.299Z,95.06
2024-01-22T04:08:47.542Z,93.43
2024-01-22T04:11:50.391Z,94.09
2024-01-22T04:14:53.327Z,94.41
2024-01-22T04:17:56.093Z,94.97
2024-01-22T04:20:58.952Z,95.02
2024-01-22T04:24:01.693Z,94.98
2024-01-22T04:27:04.628Z,95.45
2024-01-22T04:30:08.046Z,95.36
2024-01-22T04:33:13.656Z,95.30
2024-01-22T04:36:16.564Z,94.89
2024-01-22T04:39:20.846Z,94.41
2024-01-22T04:42:23.680Z,93.17
2024-01-22T04:45:26.398Z,93.88
2024-01-22T04:48:29.296Z,94.03
2024-01-22T04:51:32.004Z,94.17
2024-01-22T04:54:34.652Z,94.66
2024-01-22T04:57:37.330Z,94.48
2024-01-22T05:00:40.003Z,94.93
2024-01-22T05:03:42.687Z,93.75
2024-01-22T05:06:45.537Z,92.71
2024-01-22T05:09:48.340Z,93.15
2024-01-22T05:12:51.074Z,93.50
2024-01-22T05:15:53.796Z,93.68
2024-01-22T05:18:58.912Z,94.50
2024-01-22T05:22:01.733Z,94.60
2024-01-22T05:25:04.922Z,94.73
2024-01-22T05:28:07.585Z,94.89
2024-01-22T05:31:10.297Z,95.50
2024-01-22T05:34:13.021Z,95.95
2024-01-22T05:37:15.774Z,96.00
2024-01-22T05:40:18.504Z,96.36
2024-01-22T05:43:21.193Z,96.14
2024-01-22T05:46:23.861Z,96.62
2024-01-22T05:49:29.998Z,96.47
2024-01-22T05:52:33.435Z,97.01
2024-01-22T05:55:36.701Z,96.64
2024-01-22T05:58:39.354Z,98.31
2024-01-22T06:01:42.354Z,94.98
2024-01-22T06:04:45.101Z,95.39
2024-01-22T06:07:49.048Z,96.48
2024-01-22T06:10:52.282Z,96.16
2024-01-22T06:14:01.775Z,95.48
2024-01-22T06:17:12.233Z,96.35
2024-01-22T06:20:15.355Z,94.21
2024-01-22T06:23:18.201Z,94.10
2024-01-22T06:26:26.983Z,94.28
2024-01-22T06:29:31.494Z,94.07
2024-01-22T06:32:34.478Z,94.16
2024-01-22T06:35:38.106Z,94.07
2024-01-22T06:38:40.901Z,93.70
2024-01-22T06:41:43.591Z,93.31
2024-01-22T06:44:46.257Z,92.55
2024-01-22T06:47:49.418Z,91.67
2024-01-22T06:50:52.690Z,92.32
2024-01-22T06:53:55.369Z,92.35
2024-01-22T06:56:58.078Z,93.17
2024-01-22T07:00:06.290Z,92.88
2024-01-22T07:03:09.829Z,93.19
2024-01-22T07:06:12.735Z,92.30
2024-01-22T07:09:17.402Z,92.19
2024-01-22T07:12:21.342Z,92.71
2024-01-22T07:15:24.275Z,92.50
2024-01-22T07:18:27.090Z,93.26
2024-01-22T07:21:29.858Z,92.12
2024-01-22T07:24:32.983Z,91.77
2024-01-22T07:27:39.137Z,91.40
2024-01-22T07:30:41.814Z,91.59
2024-01-22T07:33:44.733Z,93.10
2024-01-22T07:36:48.053Z,91.39
2024-01-22T07:39:50.711Z,91.23
2024-01-22T07:42:53.590Z,91.45
2024-01-22T07:45:58.233Z,91.54
2024-01-22T07:49:01.996Z,91.98
2024-01-22T07:52:04.938Z,92.93
2024-01-22T07:55:09.224Z,92.96
2024-01-22T07:58:14.138Z,93.80
2024-01-22T08:01:17.048Z,93.17
2024-01-22T08:04:19.925Z,93.52
2024-01-22T08:07:23.944Z,93.75
2024-01-22T08:10:26.750Z,93.20
2024-01-22T08:13:29.488Z,93.70
2024-01-22T08:16:32.166Z,93.07
2024-01-22T08:19:36.224Z,93.74
2024-01-22T08:22:39.797Z,93.55
2024-01-22T08:25:42.468Z,94.63
2024-01-22T08:28:46.298Z,95.83
2024-01-22T08:31:49.023Z,95.25
2024-01-22T08:34:51.912Z,96.01
2024-01-22T08:37:56.110Z,95.24
2024-01-22T08:40:58.784Z,92.89
2024-01-22T08:44:03.333Z,91.77
2024-01-22T08:47:06.029Z,91.87
2024-01-22T08:50:09.007Z,90.18
2024-01-22T08:53:11.915Z,90.07
2024-01-22T08:56:17.293Z,87.36
2024-01-22T08:59:20.008Z,86.31
2024-01-22T09:02:22.630Z,84.83
2024-01-22T09:05:25.334Z,84.53
2024-01-22T09:08:28.430Z,84.18
2024-01-22T09:11:31.008Z,84.86
2024-01-22T09:14:33.654Z,84.19
2024-01-22T09:17:38.331Z,84.56
2024-01-22T09:20:41.091Z,84.66
2024-01-22T09:23:43.808Z,84.83
2024-01-22T09:26:46.904Z,84.80
2024-01-22T09:29:52.154Z,84.73
2024-01-22T09:32:59.190Z,84.47
2024-01-22T09:36:05.222Z,86.60
2024-01-22T09:39:08.666Z,84.21
2024-01-22T09:42:15.707Z,85.32
2024-01-22T09:45:19.467Z,85.75
2024-01-22T09:48:22.614Z,84.93
2024-01-22T09:51:25.501Z,85.14
2024-01-22T09:54:30.966Z,85.23
2024-01-22T09:57:34.004Z,86.17
2024-01-22T10:00:39.210Z,84.24
2024-01-22T10:03:42.494Z,84.47
2024-01-22T10:06:47.542Z,84.63
2024-01-22T10:09:50.291Z,83.79
2024-01-22T10:13:05.503Z,83.34
2024-01-22T10:16:11.662Z,81.77
2024-01-22T10:19:14.427Z,82.32
2024-01-22T10:22:21.063Z,82.76
2024-01-22T10:25:24.552Z,82.30
2024-01-22T10:28:27.278Z,82.35
2024-01-22T10:31:31.191Z,81.69
2024-01-22T10:34:45.085Z,80.19
2024-01-22T10:38:05.866Z,80.41
2024-01-22T10:41:21.714Z,80.60
2024-01-22T10:44:25.070Z,80.76
2024-01-22T10:47:31.424Z,80.47
2024-01-22T10:50:37.954Z,80.37
2024-01-22T10:53:41.327Z,79.25
2024-01-22T10:56:51.863Z,80.08
2024-01-22T11:00:00.853Z,79.88
2024-01-22T11:03:05.894Z,80.27
2024-01-22T11:06:10.902Z,79.98
2024-01-22T11:09:18.286Z,78.43
2024-01-22T11:12:23.708Z,76.90
2024-01-22T11:15:26.510Z,77.22
2024-01-22T11:18:31.242Z,78.45
2024-01-22T11:21:45.113Z,77.87
2024-01-22T11:25:04.245Z,77.45
2024-01-22T11:28:10.630Z,78.95
2024-01-22T11:31:27.210Z,77.80
2024-01-22T11:34:39.850Z,77.16
2024-01-22T11:37:45.104Z,76.68
2024-01-22T11:40:54.100Z,75.62
2024-01-22T11:43:57.422Z,75.79
2024-01-22T11:47:06.841Z,76.04
2024-01-22T11:50:09.989Z,73.00
2024-01-22T11:53:12.859Z,73.79
2024-01-22T11:56:16.635Z,74.18
2024-01-22T11:59:19.455Z,71.64
2024-01-22T12:02:22.318Z,72.13
2024-01-22T12:05:25.166Z,72.94
2024-01-22T12:08:28.391Z,70.72
2024-01-22T12:11:50.698Z,71.81
2024-01-22T12:15:00.303Z,70.66
2024-01-22T12:18:04.447Z,70.47
2024-01-22T12:21:09.403Z,72.12
2024-01-22T12:24:16.314Z,71.24
2024-01-22T12:27:21.356Z,73.11
2024-01-22T12:30:25.124Z,69.93
2024-01-22T12:33:29.720Z,71.25
2024-01-22T12:36:35.334Z,68.78
2024-01-22T12:39:38.929Z,69.24
2024-01-22T12:42:48.432Z,68.36
2024-01-22T12:46:04.479Z,69.51
2024-01-22T12:49:07.358Z,67.98
2024-01-22T12:52:11.630Z,70.43
2024-01-22T12:55:18.138Z,68.66
2024-01-22T12:58:21.310Z,68.86
2024-01-22T13:01:24.201Z,69.16
2024-01-22T13:04:27.185Z,69.11
2024-01-22T13:07:30.125Z,68.61
2024-01-22T13:10:34.814Z,68.09
2024-01-22T13:13:37.697Z,69.41
2024-01-22T13:16:40.589Z,70.05
2024-01-22T13:19:43.827Z,67.17
2024-01-22T13:22:46.666Z,68.64
2024-01-22T13:25:49.802Z,67.87
2024-01-22T13:28:53.592Z,72.12
2024-01-22T13:31:57.171Z,69.91
2024-01-22T13:35:00.269Z,70.70
2024-01-22T13:38:05.672Z,70.00
2024-01-22T13:41:08.918Z,69.91
2024-01-22T13:44:16.472Z,70.34
2024-01-22T13:47:32.979Z,70.44
2024-01-22T13:50:40.352Z,70.60
2024-01-22T13:53:46.420Z,70.23
2024-01-22T13:56:49.809Z,70.80
2024-01-22T13:59:52.809Z,69.42
2024-01-22T14:02:55.623Z,69.55
2024-01-22T14:05:58.528Z,68.96
2024-01-22T14:09:01.559Z,68.47
2024-01-22T14:12:06.623Z,69.83
2024-01-22T14:15:11.145Z,69.13
2024-01-22T14:18:18.353Z,70.45
2024-01-22T14:21:21.924Z,71.74
2024-01-22T14:24:24.741Z,72.95
2024-01-22T14:27:27.605Z,73.15
2024-01-22T14:30:31.212Z,72.41
2024-01-22T14:33:34.109Z,71.71
2024-01-22T14:36:37.167Z,72.66
2024-01-22T14:39:40.266Z,72.19
2024-01-22T14:42:43.242Z,75.04
2024-01-22T14:45:46.080Z,75.05
2024-01-22T14:48:55.686Z,75.86
2024-01-22T14:52:04.545Z,73.94
2024-01-22T14:55:08.442Z,75.17
2024-01-22T14:58:11.214Z,77.25
2024-01-22T15:01:13.888Z,75.62
2024-01-22T15:04:16.729Z,76.31
2024-01-22T15:07:19.623Z,74.95
2024-01-22T15:10:22.388Z,78.73
2024-01-22T15:13:25.076Z,77.59
2024-01-22T15:16:29.078Z,79.25
2024-01-22T15:19:32.018Z,80.63
2024-01-22T15:22:34.973Z,81.16
2024-01-22T15:25:37.862Z,79.91
2024-01-22T15:28:42.182Z,79.42
2024-01-22T15:31:47.407Z,80.46
2024-01-22T15:34:50.479Z,81.12
2024-01-22T15:37:53.247Z,82.33
2024-01-22T15:40:56.516Z,82.06
2024-01-22T15:43:59.982Z,82.18
2024-01-22T15:47:02.699Z,83.64
2024-01-22T15:50:06.455Z,84.18
2024-01-22T15:53:09.203Z,84.26
2024-01-22T15:56:12.184Z,85.05
2024-01-22T15:59:14.896Z,87.26
2024-01-22T16:02:17.617Z,87.05
2024-01-22T16:05:20.453Z,87.25
2024-01-22T16:08:23.464Z,87.95
2024-01-22T16:11:29.439Z,88.18
2024-01-22T16:14:32.228Z,89.28
2024-01-22T16:17:35.014Z,89.89
2024-01-22T16:20:39.649Z,90.03
2024-01-22T16:23:42.396Z,89.94
2024-01-22T16:26:45.204Z,90.23
2024-01-22T16:29:49.976Z,91.49
2024-01-22T16:32:53.039Z,91.74
2024-01-22T16:35:56.823Z,91.84
2024-01-22T16:39:01.484Z,91.53
2024-01-22T16:42:05.889Z,91.59
2024-01-22T16:45:08.984Z,91.79
2024-01-22T16:48:12.390Z,92.05
2024-01-22T16:51:15.337Z,92.00
2024-01-22T16:54:18.210Z,92.44
2024-01-22T16:57:21.126Z,92.50
2024-01-22T17:00:24.241Z,92.96
2024-01-22T17:03:27.835Z,92.78
2024-01-22T17:06:30.924Z,93.01
2024-01-22T17:09:34.138Z,92.80
2024-01-22T17:12:39.740Z,93.68
2024-01-22T17:15:46.667Z,94.24
2024-01-22T17:18:50.558Z,94.46
2024-01-22T17:21:55.177Z,94.62
2024-01-22T17:24:58.979Z,95.22
2024-01-22T17:28:01.968Z,95.41
2024-01-22T17:31:06.595Z,95.32
2024-01-22T17:34:10.079Z,94.89
2024-01-22T17:37:13.910Z,94.31
2024-01-22T17:40:16.940Z,94.16
2024-01-22T17:43:19.780Z,94.03
2024-01-22T17:46:23.212Z,94.74
2024-01-22T17:49:26.150Z,95.25
2024-01-22T17:52:29.345Z,94.00
2024-01-22T17:55:34.365Z,93.64
2024-01-22T17:58:37.300Z,94.55
2024-01-22T18:01:40.336Z,93.81
2024-01-22T18:04:43.661Z,94.03
2024-01-22T18:07:46.781Z,94.35
2024-01-22T18:10:50.907Z,94.77
2024-01-22T18:13:53.969Z,94.97
2024-01-22T18:16:56.848Z,96.24
2024-01-22T18:19:59.666Z,96.02
2024-01-22T18:23:02.777Z,96.25
2024-01-22T18:26:05.619Z,95.53
2024-01-22T18:29:09.751Z,95.68
2024-01-22T18:32:12.805Z,97.68
2024-01-22T18:35:16.110Z,98.37
2024-01-22T18:38:18.930Z,99.68
2024-01-22T18:41:26.352Z,98.16
2024-01-22T18:44:29.150Z,97.43
2024-01-22T18:47:32.760Z,97.74
2024-01-22T18:50:36.995Z,97.45
2024-01-22T18:53:41.434Z,97.35
2024-01-22T18:56:46.770Z,97.32
2024-01-22T18:59:50.773Z,97.56
2024-01-22T19:02:55.041Z,97.29
2024-01-22T19:06:03.246Z,97.15
2024-01-22T19:09:09.242Z,96.80
2024-01-22T19:12:12.042Z,96.52
2024-01-22T19:15:14.879Z,96.99
2024-01-22T19:18:17.834Z,97.24
2024-01-22T19:21:20.678Z,97.77
2024-01-22T19:24:23.532Z,98.08
2024-01-22T19:27:26.318Z,98.57
2024-01-22T19:30:29.613Z,98.66
2024-01-22T19:33:32.694Z,98.20
2024-01-22T19:36:35.461Z,97.79
2024-01-22T19:39:38.408Z,97.63
2024-01-22T19:42:41.200Z,98.18
2024-01-22T19:45:44.381Z,97.50
2024-01-22T19:48:47.175Z,97.25
2024-01-22T19:51:50.440Z,97.78
2024-01-22T19:54:53.321Z,98.34
2024-01-22T19:57:56.146Z,97.85
2024-01-22T20:00:59.465Z,97.94
2024-01-22T20:04:02.617Z,98.17
2024-01-22T20:07:06.898Z,98.54
2024-01-22T20:10:10.535Z,98.18
2024-01-22T20:13:13.323Z,98.69
2024-01-22T20:16:16.348Z,98.84
2024-01-22T20:19:19.427Z,98.39
2024-01-22T20:22:22.578Z,97.35
2024-01-22T20:25:25.256Z,97.21
2024-01-22T20:28:28.329Z,98.56
2024-01-22T20:31:31.217Z,97.42
2024-01-22T20:34:34.243Z,97.81
2024-01-22T20:37:38.763Z,96.87
2024-01-22T20:40:43.416Z,96.85
2024-01-22T20:43:46.487Z,97.33
2024-01-22T20:46:49.304Z,98.11
2024-01-22T20:49:52.510Z,97.66
2024-01-22T20:52:55.327Z,99.21
2024-01-22T20:55:58.176Z,98.84
2024-01-22T20:59:01.683Z,98.31
2024-01-22T21:02:04.687Z,97.85
2024-01-22T21:05:09.215Z,97.71
2024-01-22T21:08:12.226Z,97.91
2024-01-22T21:11:14.974Z,98.37
2024-01-22T21:14:17.737Z,98.66
2024-01-22T21:17:20.495Z,98.43
2024-01-22T21:20:23.650Z,98.87
2024-01-22T21:23:26.488Z,99.38
2024-01-22T21:26:29.629Z,97.97
2024-01-22T21:29:32.840Z,97.90
2024-01-22T21:32:35.538Z,97.82
2024-01-22T21:35:38.224Z,97.84
2024-01-22T21:38:40.916Z,98.07
2024-01-22T21:41:43.686Z,98.52
2024-01-22T21:44:47.175Z,98.57
2024-01-22T21:47:50.437Z,99.08
2024-01-22T21:50:53.566Z,99.05
2024-01-22T21:53:56.273Z,100.00
2024-01-22T21:56:59.351Z,100.00
2024-01-22T22:00:07.522Z,100.00
2024-01-22T22:03:17.449Z,99.07
2024-01-22T22:06:20.519Z,98.65
2024-01-22T22:09:25.329Z,98.72
2024-01-22T22:12:28.188Z,99.43
2024-01-22T22:15:31.132Z,100.00
2024-01-22T22:18:34.064Z,99.27
2024-01-22T22:21:52.989Z,98.39
2024-01-22T22:24:55.700Z,97.99
2024-01-22T22:27:58.517Z,98.30
2024-01-22T22:31:01.185Z,98.26
2024-01-22T22:34:05.119Z,98.41
2024-01-22T22:37:07.885Z,99.08
2024-01-22T22:40:11.417Z,99.52
2024-01-22T22:43:14.494Z,99.39
2024-01-22T22:46:17.145Z,99.28
2024-01-22T22:49:19.893Z,98.99
2024-01-22T22:52:22.688Z,99.61
2024-01-22T22:55:25.344Z,100.00
2024-01-22T22:58:29.383Z,100.00
2024-01-22T23:01:32.171Z,99.85
2024-01-22T23:04:35.225Z,99.61
2024-01-22T23:07:38.068Z,99.57
2024-01-22T23:10:40.720Z,100.00
2024-01-22T23:13:43.956Z,100.00
2024-01-22T23:16:46.616Z,100.00
2024-01-22T23:19:49.795Z,100.00
2024-01-22T23:22:52.535Z,100.00
2024-01-22T23:25:55.663Z,100.00
2024-01-22T23:28:58.328Z,100.00
2024-01-22T23:32:01.007Z,100.00
2024-01-22T23:35:04.597Z,100.00
2024-01-22T23:38:07.240Z,100.00
2024-01-22T23:41:10.518Z,100.00
2024-01-22T23:44:13.313Z,100.00
2024-01-22T23:47:16.015Z,100.00
2024-01-22T23:50:19.166Z,100.00
2024-01-22T23:53:21.981Z,100.00
2024-01-22T23:56:25.422Z,99.76
2024-01-22T23:59:28.207Z,99.79
